Time;durP1;ratioP1;P1;durP2;ratioP2;P2;SDS_P1;SDS_P2;PMS_P1;PMS_P2;Temp;Humidity;BMP_temperature;BMP_pressure;BME280_temperature;BME280_humidity;BME280_pressure;Samples;Min_cycle;Max_cycle;Signal;HPM_P1;HPM_P2
2021/03/06 00:00:20;;;;;;;5.50;5.07;;;;;;;0.48;33.12;102784.34;4926513;28;97410;-73
2021/03/06 00:02:47;;;;;;;4.95;4.60;;;;;;;0.47;33.16;102779.88;4900355;28;97124;-75
2021/03/06 00:05:14;;;;;;;4.82;4.43;;;;;;;0.46;33.23;102784.22;4901818;28;99803;-73
2021/03/06 00:07:41;;;;;;;4.93;4.55;;;;;;;0.44;33.18;102780.53;4920525;28;98996;-74
2021/03/06 00:10:11;;;;;;;5.35;4.90;;;;;;;0.46;33.01;102788.53;4913026;28;97400;-74
2021/03/06 00:12:39;;;;;;;5.18;4.68;;;;;;;0.48;33.22;102797.44;4924127;28;96984;-73
2021/03/06 00:15:26;;;;;;;4.78;4.57;;;;;;;0.45;33.18;102797.16;4913767;28;98612;-73
2021/03/06 00:17:53;;;;;;;5.47;5.05;;;;;;;0.45;33.17;102794.56;4896328;28;99374;-73
2021/03/06 00:20:21;;;;;;;4.97;4.50;;;;;;;0.44;33.19;102795.31;4926232;28;97616;-73
2021/03/06 00:22:49;;;;;;;5.05;4.70;;;;;;;0.42;33.18;102794.25;4929762;28;97417;-73
2021/03/06 00:25:18;;;;;;;5.57;5.07;;;;;;;0.41;33.34;102795.03;4908886;28;97341;-73
2021/03/06 00:27:45;;;;;;;4.50;4.18;;;;;;;0.37;33.28;102793.84;4909538;28;100026;-74
2021/03/06 00:30:13;;;;;;;4.60;4.30;;;;;;;0.34;33.41;102792.63;4905932;28;96673;-73
2021/03/06 00:32:41;;;;;;;5.32;4.47;;;;;;;0.30;33.30;102793.09;4919709;28;97064;-74
2021/03/06 00:35:10;;;;;;;5.32;5.07;;;;;;;0.32;33.31;102796.78;4927193;28;99361;-74
2021/03/06 00:37:37;;;;;;;5.18;4.78;;;;;;;0.33;33.44;102801.25;4920139;28;97993;-74
2021/03/06 00:40:07;;;;;;;7.53;5.30;;;;;;;0.31;33.52;102795.88;4927370;28;96921;-75
2021/03/06 00:42:35;;;;;;;5.38;5.03;;;;;;;0.32;33.57;102795.06;4905235;28;96932;-75
2021/03/06 00:45:02;;;;;;;5.47;5.10;;;;;;;0.33;33.23;102796.00;4924865;28;97682;-74
2021/03/06 00:47:29;;;;;;;5.05;4.75;;;;;;;0.31;33.55;102802.78;4909239;28;97718;-76
2021/03/06 00:49:57;;;;;;;5.20;4.68;;;;;;;0.27;33.57;102790.19;4909373;28;97071;-75
2021/03/06 00:52:25;;;;;;;5.10;4.75;;;;;;;0.27;33.86;102791.09;4925155;28;96941;-75
2021/03/06 00:54:52;;;;;;;4.70;4.47;;;;;;;0.28;33.70;102792.03;4918259;28;96845;-75
2021/03/06 00:57:19;;;;;;;4.60;4.38;;;;;;;0.22;33.63;102792.34;4907762;28;98193;-75
2021/03/06 00:59:46;;;;;;;4.82;4.40;;;;;;;0.21;33.74;102794.03;4900517;28;97231;-75
2021/03/06 01:02:13;;;;;;;4.80;4.50;;;;;;;0.19;33.41;102790.34;4918768;28;97066;-74
2021/03/06 01:04:44;;;;;;;5.55;5.15;;;;;;;0.21;33.84;102785.28;4885083;28;98996;-75
2021/03/06 01:07:11;;;;;;;5.15;4.75;;;;;;;0.20;33.68;102786.97;4924113;28;98294;-76
2021/03/06 01:09:38;;;;;;;4.72;4.32;;;;;;;0.19;33.58;102792.06;4909575;28;97115;-75
2021/03/06 01:12:05;;;;;;;5.03;4.50;;;;;;;0.14;33.59;102794.22;4909231;28;96733;-74
2021/03/06 01:14:32;;;;;;;5.22;4.80;;;;;;;0.12;33.81;102795.78;4928407;28;99446;-74
2021/03/06 01:16:59;;;;;;;4.50;4.20;;;;;;;0.14;33.95;102793.28;4927521;28;98180;-73
2021/03/06 01:19:27;;;;;;;5.28;4.93;;;;;;;0.11;33.72;102783.47;4927754;28;96944;-73
2021/03/06 01:21:54;;;;;;;5.40;4.90;;;;;;;0.10;33.71;102781.63;4928335;28;97371;-72
2021/03/06 01:24:34;;;;;;;4.90;4.70;;;;;;;0.09;33.39;102785.03;4929176;28;96917;-73
2021/03/06 01:27:01;;;;;;;5.20;4.85;;;;;;;0.09;33.90;102785.03;4909121;28;99475;-72
2021/03/06 01:29:28;;;;;;;4.50;4.30;;;;;;;0.09;33.66;102785.03;4928980;28;96936;-72
2021/03/06 01:31:56;;;;;;;5.40;4.88;;;;;;;0.08;33.75;102782.28;4909303;28;97106;-73
2021/03/06 01:34:24;;;;;;;5.57;4.75;;;;;;;0.05;33.54;102777.66;4900927;28;98185;-72
2021/03/06 01:36:52;;;;;;;4.80;4.43;;;;;;;0.04;33.99;102765.38;4911509;28;99934;-73
2021/03/06 01:39:19;;;;;;;4.88;4.63;;;;;;;0.02;33.82;102768.59;4912367;28;97337;-72
2021/03/06 01:41:46;;;;;;;5.18;4.88;;;;;;;-0.06;33.71;102772.16;4923767;28;96714;-73
2021/03/06 01:44:13;;;;;;;4.82;4.53;;;;;;;-0.11;33.76;102762.97;4889462;28;100715;-73
2021/03/06 01:46:40;;;;;;;4.75;4.55;;;;;;;-0.15;34.04;102763.44;4907737;28;100761;-73
2021/03/06 01:49:07;;;;;;;4.88;4.57;;;;;;;-0.23;34.11;102762.69;4912755;28;96820;-73
2021/03/06 01:51:35;;;;;;;6.38;4.95;;;;;;;-0.24;34.22;102759.94;4928328;28;97230;-73
2021/03/06 01:54:03;;;;;;;4.80;4.50;;;;;;;-0.29;34.12;102761.22;4901097;28;100660;-74
2021/03/06 01:56:48;;;;;;;6.00;5.45;;;;;;;-0.33;34.11;102757.38;4924914;28;96951;-75
2021/03/06 01:59:15;;;;;;;5.43;5.03;;;;;;;-0.37;34.33;102752.63;4909250;28;96764;-73
2021/03/06 02:01:42;;;;;;;5.25;4.90;;;;;;;-0.36;34.56;102754.50;4907135;28;98501;-74
2021/03/06 02:04:09;;;;;;;5.00;4.70;;;;;;;-0.34;34.01;102758.16;4914133;28;100877;-73
2021/03/06 02:06:37;;;;;;;5.25;4.88;;;;;;;-0.32;34.22;102759.22;4906665;28;99796;-73
2021/03/06 02:09:04;;;;;;;4.82;4.53;;;;;;;-0.32;34.63;102761.81;4923850;28;98460;-74
2021/03/06 02:11:38;;;;;;;5.95;5.55;;;;;;;-0.35;33.91;102751.09;4908046;28;96999;-73
2021/03/06 02:14:12;;;;;;;8.13;4.60;;;;;;;-0.35;34.26;102751.09;4909078;28;99625;-73
2021/03/06 02:16:41;;;;;;;5.65;5.15;;;;;;;-0.36;34.22;102749.25;4928299;28;97902;-75
2021/03/06 02:19:32;;;;;;;4.95;4.75;;;;;;;-0.43;34.07;102751.13;4915370;28;97113;-72
2021/03/06 02:22:16;;;;;;;5.13;4.70;;;;;;;-0.41;34.49;102755.72;4910757;28;97122;-74
2021/03/06 02:24:59;;;;;;;5.18;4.80;;;;;;;-0.40;34.29;102760.19;4920009;28;99486;-75
2021/03/06 02:27:30;;;;;;;5.38;4.95;;;;;;;-0.44;34.62;102750.19;4904055;28;97023;-73
2021/03/06 02:30:00;;;;;;;5.45;5.15;;;;;;;-0.47;34.87;102754.22;4928661;28;96917;-74
2021/03/06 02:32:29;;;;;;;5.18;4.78;;;;;;;-0.49;34.56;102755.75;4910500;28;98207;-73
2021/03/06 02:35:09;;;;;;;5.13;4.82;;;;;;;-0.47;34.69;102756.84;4926451;28;97663;-73
2021/03/06 02:37:38;;;;;;;5.07;4.75;;;;;;;-0.48;34.87;102753.28;4926593;28;97631;-73
2021/03/06 02:40:07;;;;;;;5.65;5.05;;;;;;;-0.46;34.80;102756.97;4911195;28;96905;-72
2021/03/06 02:42:35;;;;;;;6.28;5.68;;;;;;;-0.48;34.70;102748.06;4908323;28;97329;-74
2021/03/06 02:45:04;;;;;;;4.72;4.38;;;;;;;-0.50;34.28;102753.94;4910757;28;99322;-72
2021/03/06 02:47:31;;;;;;;5.32;4.95;;;;;;;-0.51;34.91;102749.47;4919776;28;98845;-72
2021/03/06 02:49:59;;;;;;;5.20;4.90;;;;;;;-0.51;34.77;102759.91;4921642;28;97013;-73
2021/03/06 02:52:27;;;;;;;4.88;4.60;;;;;;;-0.51;34.58;102757.28;4921410;28;96896;-74
2021/03/06 02:54:54;;;;;;;5.55;5.20;;;;;;;-0.52;34.80;102750.25;4908481;28;98533;-74
2021/03/06 02:57:36;;;;;;;5.57;5.03;;;;;;;-0.55;35.38;102748.25;4907806;28;100383;-73
2021/03/06 03:00:12;;;;;;;5.45;5.07;;;;;;;-0.53;35.14;102754.53;4906058;28;96944;-73
2021/03/06 03:02:44;;;;;;;5.53;5.22;;;;;;;-0.53;34.73;102748.38;4902349;28;97062;-73
2021/03/06 03:05:24;;;;;;;5.18;4.68;;;;;;;-0.56;35.22;102749.03;4927369;28;96941;-74
2021/03/06 03:08:01;;;;;;;5.63;5.18;;;;;;;-0.55;35.11;102750.84;4892714;28;99737;-73
2021/03/06 03:10:30;;;;;;;5.07;4.70;;;;;;;-0.57;34.96;102744.56;4927059;28;97178;-74
2021/03/06 03:13:07;;;;;;;4.82;4.63;;;;;;;-0.60;34.84;102744.28;4905732;28;97384;-75
2021/03/06 03:15:38;;;;;;;4.90;4.70;;;;;;;-0.62;34.86;102740.59;4918376;28;99386;-75
2021/03/06 03:18:06;;;;;;;4.90;4.65;;;;;;;-0.58;34.51;102744.41;4925064;28;97811;-73
2021/03/06 03:20:35;;;;;;;5.82;5.43;;;;;;;-0.56;34.48;102748.09;4919204;28;96926;-74
2021/03/06 03:23:08;;;;;;;5.00;4.60;;;;;;;-0.57;34.57;102741.94;4911910;28;97257;-73
2021/03/06 03:25:35;;;;;;;5.32;4.90;;;;;;;-0.59;35.08;102743.47;4906570;28;98863;-76
2021/03/06 03:28:03;;;;;;;5.95;5.35;;;;;;;-0.59;35.10;102743.47;4909106;28;99490;-74
2021/03/06 03:30:30;;;;;;;5.70;5.25;;;;;;;-0.63;35.03;102749.22;4920885;28;97326;-73
2021/03/06 03:33:00;;;;;;;5.20;4.72;;;;;;;-0.66;34.62;102750.56;4926185;28;96879;-72
2021/03/06 03:35:47;;;;;;;5.07;4.70;;;;;;;-0.67;35.19;102747.06;4914807;28;96741;-74
2021/03/06 03:38:14;;;;;;;5.50;5.00;;;;;;;-0.71;34.91;102744.91;4908108;28;97380;-74
2021/03/06 03:40:41;;;;;;;5.15;4.85;;;;;;;-0.74;35.30;102743.69;4890757;28;97042;-73
2021/03/06 03:43:08;;;;;;;4.85;4.65;;;;;;;-0.77;35.20;102749.53;4910431;28;97292;-73
2021/03/06 03:45:35;;;;;;;4.93;4.63;;;;;;;-0.83;34.72;102747.25;4907349;28;100961;-73
2021/03/06 03:48:03;;;;;;;5.38;4.95;;;;;;;-0.89;35.04;102750.97;4915371;28;98528;-74
2021/03/06 03:50:30;;;;;;;5.38;4.88;;;;;;;-0.94;35.47;102750.50;4926605;28;97161;-74
2021/03/06 03:52:57;;;;;;;6.55;4.60;;;;;;;-0.99;35.00;102745.59;4910162;28;97024;-73
2021/03/06 03:55:25;;;;;;;7.72;5.13;;;;;;;-1.03;34.84;102754.81;4920923;28;98781;-73
2021/03/06 03:57:53;;;;;;;5.82;4.97;;;;;;;-1.11;35.65;102765.28;4922820;28;99413;-73
2021/03/06 04:00:22;;;;;;;5.22;4.85;;;;;;;-1.16;35.44;102762.22;4909266;28;97801;-72
2021/03/06 04:02:49;;;;;;;5.57;5.28;;;;;;;-1.19;35.44;102758.38;4892111;28;96850;-75
2021/03/06 04:05:17;;;;;;;5.57;5.18;;;;;;;-1.19;35.20;102763.59;4916536;28;99021;-73
2021/03/06 04:07:45;;;;;;;5.82;5.43;;;;;;;-1.22;35.33;102766.84;4916889;28;97594;-73
2021/03/06 04:10:13;;;;;;;8.50;5.35;;;;;;;-1.29;35.08;102772.22;4904539;28;98637;-73
2021/03/06 04:12:40;;;;;;;5.47;5.18;;;;;;;-1.34;35.25;102773.44;4924788;28;97206;-73
2021/03/06 04:15:08;;;;;;;6.57;6.07;;;;;;;-1.40;35.66;102772.84;4924705;28;98673;-76
2021/03/06 04:17:35;;;;;;;7.05;5.78;;;;;;;-1.47;35.91;102775.56;4919099;28;99393;-74
2021/03/06 04:20:03;;;;;;;6.88;6.03;;;;;;;-1.51;36.01;102769.91;4906744;28;97812;-74
2021/03/06 04:22:31;;;;;;;6.63;6.10;;;;;;;-1.52;35.77;102765.47;4911493;28;97357;-74
2021/03/06 04:24:58;;;;;;;7.28;5.80;;;;;;;-1.55;35.67;102770.38;4925285;28;96670;-76
2021/03/06 04:27:25;;;;;;;6.53;6.00;;;;;;;-1.56;35.73;102768.53;4928310;28;100345;-74
2021/03/06 04:29:52;;;;;;;6.47;6.03;;;;;;;-1.63;35.53;102777.41;4918222;28;96750;-75
2021/03/06 04:32:19;;;;;;;6.30;5.50;;;;;;;-1.66;36.01;102773.56;4933205;28;96561;-74
2021/03/06 04:34:46;;;;;;;6.65;6.25;;;;;;;-1.72;35.57;102775.59;4911332;28;99376;-74
2021/03/06 04:37:13;;;;;;;6.13;5.72;;;;;;;-1.74;35.83;102767.56;4891461;28;100465;-75
2021/03/06 04:39:41;;;;;;;6.53;5.78;;;;;;;-1.77;35.45;102780.31;4920151;28;96943;-76
2021/03/06 04:42:08;;;;;;;6.65;6.13;;;;;;;-1.80;36.22;102776.47;4919143;28;97336;-74
2021/03/06 04:44:35;;;;;;;6.60;5.97;;;;;;;-1.85;36.10;102782.13;4925522;28;97711;-74
2021/03/06 04:47:03;;;;;;;6.40;6.00;;;;;;;-1.89;35.66;102774.75;4900443;28;102816;-74
2021/03/06 04:49:30;;;;;;;6.97;6.35;;;;;;;-1.92;36.17;102771.84;4925167;28;97219;-73
2021/03/06 04:51:58;;;;;;;7.40;6.72;;;;;;;-1.93;35.66;102779.53;4913706;28;97255;-74
2021/03/06 04:54:24;;;;;;;7.10;6.50;;;;;;;-1.96;35.92;102781.78;4906266;28;100779;-74
2021/03/06 04:57:09;;;;;;;7.53;6.80;;;;;;;-1.95;36.17;102781.97;4924563;28;96832;-74
2021/03/06 04:59:36;;;;;;;6.25;5.75;;;;;;;-1.98;36.33;102792.06;4907168;28;97108;-73
2021/03/06 05:02:03;;;;;;;6.38;5.88;;;;;;;-2.00;36.36;102791.00;4918752;28;98231;-74
2021/03/06 05:04:30;;;;;;;7.50;6.80;;;;;;;-2.05;35.78;102784.38;4903603;28;99766;-73
2021/03/06 05:06:57;;;;;;;7.20;6.60;;;;;;;-2.11;36.04;102783.75;4889781;28;100600;-74
2021/03/06 05:09:24;;;;;;;8.07;6.33;;;;;;;-2.11;35.95;102794.19;4890555;28;97474;-73
2021/03/06 05:11:52;;;;;;;7.33;6.63;;;;;;;-2.14;36.10;102782.50;4924645;28;97430;-73
2021/03/06 05:14:20;;;;;;;7.43;6.25;;;;;;;-2.13;36.08;102795.75;4922707;28;97863;-74
2021/03/06 05:16:47;;;;;;;6.90;6.20;;;;;;;-2.14;36.46;102791.25;4922848;28;98753;-73
2021/03/06 05:19:14;;;;;;;6.77;6.37;;;;;;;-2.13;36.02;102798.34;4925171;28;97321;-74
2021/03/06 05:21:41;;;;;;;8.83;6.30;;;;;;;-2.11;35.90;102795.88;4918119;28;96793;-73
2021/03/06 05:24:08;;;;;;;7.73;7.13;;;;;;;-2.13;36.39;102793.13;4900645;28;99524;-73
2021/03/06 05:26:35;;;;;;;6.38;5.95;;;;;;;-2.12;36.53;102791.41;4923531;28;97518;-74
2021/03/06 05:29:02;;;;;;;6.53;6.03;;;;;;;-2.15;36.41;102797.25;4904601;28;97405;-73
2021/03/06 05:31:30;;;;;;;6.63;6.10;;;;;;;-2.13;36.51;102800.03;4922500;28;97221;-73
2021/03/06 05:33:57;;;;;;;6.63;6.13;;;;;;;-2.11;36.22;102795.88;4923524;28;97711;-73
2021/03/06 05:36:24;;;;;;;7.27;6.77;;;;;;;-2.07;36.58;102795.44;4922661;28;100588;-73
2021/03/06 05:38:51;;;;;;;7.33;6.63;;;;;;;-2.07;36.46;102798.06;4921168;28;97196;-74
2021/03/06 05:41:19;;;;;;;6.80;6.00;;;;;;;-2.07;36.47;102800.66;4901365;28;97323;-75
2021/03/06 05:44:05;;;;;;;6.73;6.23;;;;;;;-2.08;36.60;102798.81;4904969;28;99833;-74
2021/03/06 05:46:52;;;;;;;6.13;5.83;;;;;;;-2.09;36.83;102808.31;4924478;28;98397;-75
2021/03/06 05:49:19;;;;;;;8.65;6.55;;;;;;;-2.10;36.30;102801.25;4920884;28;96700;-72
2021/03/06 05:51:47;;;;;;;6.50;6.10;;;;;;;-2.09;36.13;102802.19;4901650;28;99295;-74
2021/03/06 05:54:14;;;;;;;6.57;5.97;;;;;;;-2.10;36.28;102802.94;4907491;28;98497;-76
2021/03/06 05:56:42;;;;;;;8.17;6.27;;;;;;;-2.14;36.16;102801.69;4909850;28;99587;-74
2021/03/06 05:59:11;;;;;;;6.40;6.00;;;;;;;-2.12;36.10;102808.00;4915028;28;97205;-75
2021/03/06 06:01:39;;;;;;;6.20;5.82;;;;;;;-2.13;36.32;102803.56;4906147;28;97818;-73
2021/03/06 06:04:08;;;;;;;7.00;6.40;;;;;;;-2.15;36.87;102812.91;4929165;28;98883;-74
2021/03/06 06:06:36;;;;;;;6.32;5.82;;;;;;;-2.14;36.47;102805.97;4909434;28;99266;-75
2021/03/06 06:09:04;;;;;;;7.03;6.60;;;;;;;-2.12;36.77;102804.47;4909657;28;97227;-73
2021/03/06 06:11:32;;;;;;;7.13;6.43;;;;;;;-2.10;36.95;102811.69;4910671;28;96884;-73
2021/03/06 06:14:00;;;;;;;7.43;6.77;;;;;;;-2.11;36.84;102811.53;4907290;28;100032;-73
2021/03/06 06:16:28;;;;;;;7.43;6.70;;;;;;;-2.12;36.93;102814.88;4925537;28;97894;-74
2021/03/06 06:18:56;;;;;;;7.03;6.53;;;;;;;-2.10;36.95;102814.28;4927717;28;96693;-74
2021/03/06 06:21:43;;;;;;;7.13;6.63;;;;;;;-2.13;36.87;102816.59;4929560;28;96898;-74
2021/03/06 06:24:12;;;;;;;9.20;6.35;;;;;;;-2.15;37.06;102818.13;4907894;28;99661;-73
2021/03/06 06:26:40;;;;;;;7.38;6.50;;;;;;;-2.13;36.68;102816.59;4901833;28;98620;-75
2021/03/06 06:29:07;;;;;;;6.57;6.17;;;;;;;-2.14;36.82;102814.75;4929809;28;97095;-74
2021/03/06 06:31:34;;;;;;;8.03;7.23;;;;;;;-2.13;36.77;102821.81;4924839;28;97059;-74
2021/03/06 06:34:12;;;;;;;7.18;6.60;;;;;;;-2.14;37.44;102827.78;4926550;28;98882;-73
2021/03/06 06:36:40;;;;;;;8.23;6.60;;;;;;;-2.14;36.91;102827.78;4926686;28;97025;-73
2021/03/06 06:39:09;;;;;;;8.80;6.37;;;;;;;-2.15;37.06;102831.16;4908245;28;97274;-73
2021/03/06 06:41:53;;;;;;;7.57;7.07;;;;;;;-2.12;37.79;102827.94;4925785;28;97361;-72
2021/03/06 06:44:20;;;;;;;7.35;6.75;;;;;;;-2.11;36.87;102841.13;4919150;28;99350;-75
2021/03/06 06:46:47;;;;;;;6.97;6.40;;;;;;;-2.09;37.32;102833.50;4907901;28;98910;-72
2021/03/06 06:49:15;;;;;;;8.57;7.03;;;;;;;-2.08;37.70;102835.31;4908374;28;97134;-73
2021/03/06 06:51:59;;;;;;;7.70;7.00;;;;;;;-2.03;37.67;102835.03;4920650;28;98315;-74
2021/03/06 06:54:26;;;;;;;9.32;7.28;;;;;;;-1.99;36.91;102842.41;4906266;28;97826;-74
2021/03/06 06:57:13;;;;;;;7.95;6.35;;;;;;;-1.93;38.03;102839.53;4910333;28;99375;-76
2021/03/06 06:59:51;;;;;;;6.78;5.93;;;;;;;-1.87;37.05;102838.47;4927378;28;97200;-73
2021/03/06 07:02:18;;;;;;;7.03;6.53;;;;;;;-1.83;36.71;102838.81;4925754;28;97020;-73
2021/03/06 07:04:48;;;;;;;8.52;6.18;;;;;;;-1.78;37.25;102840.19;4918999;28;98149;-74
2021/03/06 07:07:16;;;;;;;9.48;7.30;;;;;;;-1.71;37.05;102840.97;4927698;28;98699;-74
2021/03/06 07:10:03;;;;;;;7.47;6.95;;;;;;;-1.65;37.68;102841.59;4915092;28;98409;-74
2021/03/06 07:12:31;;;;;;;6.18;5.57;;;;;;;-1.59;37.29;102846.50;4925964;28;98609;-72
2021/03/06 07:14:58;;;;;;;6.93;6.32;;;;;;;-1.54;37.29;102845.31;4928215;28;97564;-75
2021/03/06 07:17:36;;;;;;;7.15;6.55;;;;;;;-1.48;37.33;102851.13;4908097;28;99170;-74
2021/03/06 07:20:06;;;;;;;7.03;6.20;;;;;;;-1.43;37.00;102850.84;4902259;28;97229;-75
2021/03/06 07:22:33;;;;;;;6.68;6.07;;;;;;;-1.41;37.17;102843.16;4920792;28;98757;-74
2021/03/06 07:25:01;;;;;;;6.50;6.00;;;;;;;-1.37;37.30;102837.50;4928643;28;98817;-74
2021/03/06 07:27:28;;;;;;;6.78;6.07;;;;;;;-1.33;37.41;102842.25;4925387;28;98975;-73
2021/03/06 07:29:55;;;;;;;6.78;6.20;;;;;;;-1.26;36.65;102842.13;4923821;28;97008;-73
2021/03/06 07:32:30;;;;;;;6.85;5.75;;;;;;;-1.16;36.72;102837.06;4920408;28;96854;-73
2021/03/06 07:35:17;;;;;;;6.13;5.57;;;;;;;-1.10;37.54;102830.75;4923255;28;96944;-72
2021/03/06 07:37:44;;;;;;;6.60;6.10;;;;;;;-1.03;37.74;102824.47;4922531;28;97614;-72
2021/03/06 07:40:13;;;;;;;5.93;5.53;;;;;;;-0.93;37.03;102829.81;4926226;28;96705;-74
2021/03/06 07:42:45;;;;;;;6.07;5.47;;;;;;;-0.84;36.95;102828.13;4892793;28;96751;-74
2021/03/06 07:45:14;;;;;;;5.78;5.28;;;;;;;-0.80;37.08;102825.06;4891052;28;98996;-73
2021/03/06 07:47:43;;;;;;;8.88;6.50;;;;;;;-0.73;37.00;102821.34;4926654;28;99334;-74
2021/03/06 07:50:15;;;;;;;5.65;5.00;;;;;;;-0.64;37.28;102823.16;4927916;28;96809;-75
2021/03/06 07:52:42;;;;;;;6.00;5.18;;;;;;;-0.56;37.05;102824.84;4927067;28;97404;-73
2021/03/06 07:55:11;;;;;;;6.13;5.60;;;;;;;-0.49;36.65;102824.69;4924821;28;97619;-73
2021/03/06 07:58:10;;;;;;;6.43;5.82;;;;;;;-0.42;37.59;102823.56;4905581;28;100463;-74
2021/03/06 08:00:44;;;;;;;6.00;5.43;;;;;;;-0.35;36.60;102824.31;4923768;28;97404;-74
2021/03/06 08:03:37;;;;;;;6.20;5.80;;;;;;;-0.24;38.75;102815.81;4898363;28;97183;-74
2021/03/06 08:06:06;;;;;;;7.70;5.57;;;;;;;-0.16;36.99;102827.97;4921339;28;98019;-74
2021/03/06 08:08:53;;;;;;;5.38;5.07;;;;;;;-0.04;38.11;102834.34;4904635;28;99437;-75
2021/03/06 08:11:22;;;;;;;5.60;5.10;;;;;;;0.05;36.80;102824.75;4925566;28;97178;-75
2021/03/06 08:13:52;;;;;;;6.05;5.55;;;;;;;0.11;36.74;102824.44;4894321;28;97942;-75
2021/03/06 08:16:36;;;;;;;5.32;4.85;;;;;;;0.18;38.27;102827.78;4911177;28;98215;-75
2021/03/06 08:19:23;;;;;;;5.68;5.22;;;;;;;0.28;37.47;102828.69;4925795;28;96972;-75
2021/03/06 08:21:51;;;;;;;10.25;6.50;;;;;;;0.28;36.99;102819.16;4921341;28;97404;-75
2021/03/06 08:24:27;;;;;;;4.82;4.47;;;;;;;0.35;37.84;102821.56;4894056;28;96994;-75
2021/03/06 08:27:27;;;;;;;5.32;4.97;;;;;;;0.45;38.23;102828.59;4893648;28;100726;-75
2021/03/06 08:29:56;;;;;;;4.95;4.70;;;;;;;0.48;36.99;102828.88;4907243;28;101392;-74
2021/03/06 08:32:31;;;;;;;4.88;4.43;;;;;;;0.55;36.74;102832.22;4925323;28;97355;-76
2021/03/06 08:34:59;;;;;;;7.72;4.88;;;;;;;0.66;37.33;102833.22;4908103;28;97266;-76
2021/03/06 08:37:31;;;;;;;5.25;4.57;;;;;;;0.74;37.15;102834.88;4926378;28;98238;-75
2021/03/06 08:40:24;;;;;;;6.75;4.40;;;;;;;0.82;37.15;102823.38;4910821;28;97565;-75
2021/03/06 08:42:52;;;;;;;4.88;4.38;;;;;;;0.84;37.13;102830.59;4920369;28;97063;-75
2021/03/06 08:45:22;;;;;;;8.27;4.80;;;;;;;0.87;37.21;102838.75;4920579;28;97744;-76
2021/03/06 08:47:52;;;;;;;6.18;4.13;;;;;;;0.88;36.90;102832.75;4925720;28;99298;-75
2021/03/06 08:50:21;;;;;;;5.53;4.93;;;;;;;0.87;37.12;102838.75;4927843;28;97823;-75
2021/03/06 08:52:56;;;;;;;5.50;4.50;;;;;;;0.90;37.55;102851.22;4924643;28;97327;-75
2021/03/06 08:55:24;;;;;;;6.97;4.47;;;;;;;0.94;36.79;102835.91;4923616;28;97117;-75
2021/03/06 08:57:51;;;;;;;4.68;4.38;;;;;;;0.99;36.91;102828.47;4902641;28;98619;-75
2021/03/06 09:00:23;;;;;;;4.85;4.45;;;;;;;1.05;36.92;102824.72;4927835;28;96976;-76
2021/03/06 09:02:51;;;;;;;5.95;4.30;;;;;;;1.10;36.63;102828.66;4924845;28;97530;-74
2021/03/06 09:05:21;;;;;;;5.50;5.00;;;;;;;1.15;36.80;102824.78;4902086;28;96842;-75
2021/03/06 09:07:50;;;;;;;4.47;4.22;;;;;;;1.23;37.29;102828.09;4911891;28;100546;-75
2021/03/06 09:10:34;;;;;;;5.35;4.60;;;;;;;1.32;37.22;102830.63;4925660;28;98815;-75
2021/03/06 09:13:04;;;;;;;4.95;4.53;;;;;;;1.37;36.98;102838.13;4904960;28;97302;-74
2021/03/06 09:15:38;;;;;;;4.72;4.28;;;;;;;1.38;36.91;102844.31;4914063;28;97680;-74
2021/03/06 09:18:07;;;;;;;6.68;4.90;;;;;;;1.42;36.49;102836.84;4927313;28;98169;-75
2021/03/06 09:20:47;;;;;;;5.07;4.53;;;;;;;1.48;36.63;102840.03;4925758;28;97852;-75
2021/03/06 09:23:29;;;;;;;4.97;4.68;;;;;;;1.48;36.98;102845.28;4908270;28;97184;-74
2021/03/06 09:25:56;;;;;;;5.75;4.65;;;;;;;1.50;36.90;102830.59;4924340;28;97020;-75
2021/03/06 09:28:24;;;;;;;6.20;4.38;;;;;;;1.56;36.37;102846.88;4917002;28;99173;-75
2021/03/06 09:30:52;;;;;;;5.70;5.18;;;;;;;1.57;36.13;102846.09;4919799;28;100284;-75
2021/03/06 09:33:25;;;;;;;5.70;5.20;;;;;;;1.52;36.39;102831.66;4913587;28;96988;-75
2021/03/06 09:36:02;;;;;;;5.68;5.22;;;;;;;1.54;36.38;102837.03;4898103;28;97436;-75
2021/03/06 09:38:44;;;;;;;7.45;4.78;;;;;;;1.56;36.59;102836.38;4943294;28;99114;-75
2021/03/06 09:41:11;;;;;;;6.97;6.28;;;;;;;1.60;36.47;102840.22;4920515;28;99028;-74
2021/03/06 09:43:39;;;;;;;6.22;5.10;;;;;;;1.63;36.86;102840.50;4915131;28;97362;-75
2021/03/06 09:46:13;;;;;;;4.78;4.47;;;;;;;1.68;36.72;102842.75;4923204;28;96827;-75
2021/03/06 09:48:47;;;;;;;6.80;6.00;;;;;;;1.77;36.56;102838.31;4924207;28;100867;-75
2021/03/06 09:51:15;;;;;;;8.95;5.70;;;;;;;1.80;36.39;102841.19;4912237;28;98571;-75
2021/03/06 09:53:42;;;;;;;5.75;4.93;;;;;;;1.81;36.41;102827.31;4907029;28;96788;-76
2021/03/06 09:56:10;;;;;;;5.25;4.50;;;;;;;1.83;36.46;102849.38;4921186;28;97610;-75
2021/03/06 09:58:38;;;;;;;5.80;5.00;;;;;;;1.82;36.73;102849.19;4924379;28;98083;-75
2021/03/06 10:01:15;;;;;;;5.10;4.80;;;;;;;1.81;36.71;102843.06;4926507;28;98034;-75
2021/03/06 10:03:43;;;;;;;5.93;4.63;;;;;;;1.79;36.64;102838.44;4907002;28;96826;-76
2021/03/06 10:06:10;;;;;;;4.82;4.43;;;;;;;1.83;36.57;102824.81;4906883;28;98374;-74
2021/03/06 10:08:39;;;;;;;5.53;4.13;;;;;;;1.83;36.66;102835.31;4911528;28;98111;-76
2021/03/06 10:11:06;;;;;;;5.53;4.93;;;;;;;1.86;36.94;102840.81;4918654;28;97834;-75
2021/03/06 10:13:33;;;;;;;7.35;4.47;;;;;;;1.92;37.12;102847.56;4911496;28;97059;-74
2021/03/06 10:16:03;;;;;;;4.78;4.57;;;;;;;1.94;36.74;102861.75;4905702;28;97196;-76
2021/03/06 10:18:37;;;;;;;5.00;4.70;;;;;;;1.88;37.22;102863.81;4902752;28;98157;-76
2021/03/06 10:21:14;;;;;;;5.15;4.78;;;;;;;1.84;37.33;102851.19;4921150;28;99395;-76
2021/03/06 10:23:41;;;;;;;7.97;5.55;;;;;;;1.85;37.00;102844.25;4923603;28;97113;-74
2021/03/06 10:26:17;;;;;;;5.20;4.78;;;;;;;1.83;37.25;102846.75;4920014;28;97348;-75
2021/03/06 10:28:44;;;;;;;5.93;4.75;;;;;;;1.86;37.40;102846.06;4924891;28;97452;-75
2021/03/06 10:31:31;;;;;;;6.45;4.63;;;;;;;1.92;36.79;102851.88;4920196;28;100147;-76
2021/03/06 10:34:14;;;;;;;5.22;4.80;;;;;;;1.95;37.41;102854.75;4908463;28;97182;-76
2021/03/06 10:37:11;;;;;;;4.53;4.22;;;;;;;1.99;36.77;102849.00;4889167;28;97066;-75
2021/03/06 10:40:02;;;;;;;4.70;4.40;;;;;;;1.95;38.06;102849.50;4912820;28;97189;-75
2021/03/06 10:42:43;;;;;;;4.70;4.50;;;;;;;1.99;36.88;102844.69;4931702;28;98863;-74
2021/03/06 10:45:24;;;;;;;5.10;4.72;;;;;;;1.99;37.93;102849.94;4937359;28;97251;-75
2021/03/06 10:47:53;;;;;;;4.85;4.38;;;;;;;2.00;37.36;102843.88;4932676;28;96995;-75
2021/03/06 10:50:22;;;;;;;5.18;4.82;;;;;;;2.03;37.42;102844.19;4927862;28;97581;-75
2021/03/06 10:52:48;;;;;;;5.47;4.38;;;;;;;2.07;37.29;102833.13;4931169;28;98250;-76
2021/03/06 10:55:15;;;;;;;4.35;4.15;;;;;;;2.11;36.50;102847.47;4913807;28;96739;-76
2021/03/06 10:57:49;;;;;;;4.63;4.28;;;;;;;2.13;37.65;102841.59;4896809;28;96930;-76
2021/03/06 11:00:21;;;;;;;4.90;4.60;;;;;;;2.16;37.99;102843.56;4926362;28;99557;-76
2021/03/06 11:02:55;;;;;;;4.97;4.50;;;;;;;2.26;37.05;102845.28;4921625;28;97839;-76
2021/03/06 11:05:25;;;;;;;5.03;4.68;;;;;;;2.34;37.34;102832.03;4927479;28;97242;-76
2021/03/06 11:07:53;;;;;;;5.35;4.60;;;;;;;2.42;36.91;102837.97;4912532;28;97048;-76
2021/03/06 11:10:27;;;;;;;5.35;4.95;;;;;;;2.49;36.62;102829.81;4903858;28;99878;-75
2021/03/06 11:12:55;;;;;;;8.77;5.25;;;;;;;2.59;36.62;102833.34;4895382;28;99933;-75
2021/03/06 11:15:24;;;;;;;5.80;5.18;;;;;;;2.66;37.12;102824.28;4905543;28;97265;-70
2021/03/06 11:17:54;;;;;;;5.13;4.72;;;;;;;2.74;37.06;102817.97;4926430;28;97434;-75
2021/03/06 11:20:23;;;;;;;5.32;4.80;;;;;;;2.85;36.93;102836.50;4930303;28;99191;-73
2021/03/06 11:22:51;;;;;;;6.18;5.15;;;;;;;2.99;36.28;102821.88;4928633;28;98665;-69
2021/03/06 11:25:19;;;;;;;5.43;4.80;;;;;;;3.13;36.66;102816.97;4928446;28;97726;-69
2021/03/06 11:27:48;;;;;;;5.28;4.88;;;;;;;3.29;36.72;102815.63;4929948;28;96810;-73
2021/03/06 11:30:18;;;;;;;5.25;4.90;;;;;;;3.47;36.04;102814.50;4930144;28;97901;-69
2021/03/06 11:32:45;;;;;;;5.20;4.80;;;;;;;3.59;35.98;102816.41;4932873;28;97329;-70
2021/03/06 11:35:14;;;;;;;5.35;4.95;;;;;;;3.70;36.35;102804.16;4901826;28;96836;-71
2021/03/06 11:37:40;;;;;;;6.60;5.15;;;;;;;3.77;35.80;102801.25;4916616;28;98157;-68
2021/03/06 11:40:11;;;;;;;5.25;4.82;;;;;;;3.83;35.82;102801.72;4913470;28;97811;-69
2021/03/06 11:42:39;;;;;;;5.30;4.57;;;;;;;3.85;35.83;102789.59;4910326;28;99305;-70
2021/03/06 11:45:08;;;;;;;5.80;5.38;;;;;;;3.93;35.81;102777.97;4896520;28;96907;-69